createdAt,value
2023-01-17T00:00:43.476Z,97719.50
2023-01-17T00:03:08.454Z,97723.53
2023-01-17T00:05:49.221Z,97714.19
2023-01-17T00:08:32.856Z,97710.38
2023-01-17T00:10:59.222Z,97705.56
2023-01-17T00:13:22.750Z,97703.72
2023-01-17T00:15:46.420Z,97699.88
2023-01-17T00:18:09.998Z,97705.88
2023-01-17T00:20:51.432Z,97696.38
2023-01-17T00:23:37.112Z,97691.06
2023-01-17T00:26:04.031Z,97692.56
2023-01-17T00:28:27.400Z,97695.22
2023-01-17T00:30:50.106Z,97691.59
2023-01-17T00:33:12.601Z,97688.94
2023-01-17T00:35:35.223Z,97680.59
2023-01-17T00:38:06.921Z,97674.13
2023-01-17T00:40:31.080Z,97673.13
2023-01-17T00:42:53.521Z,97671.47
2023-01-17T00:45:34.995Z,97670.69
2023-01-17T00:48:15.744Z,97667.16
2023-01-17T00:50:57.129Z,97670.00
2023-01-17T00:53:38.080Z,97678.16
2023-01-17T00:56:21.564Z,97675.81
2023-01-17T00:59:02.441Z,97678.31
2023-01-17T01:01:43.377Z,97670.00
2023-01-17T01:04:24.252Z,97669.53
2023-01-17T01:07:05.101Z,97662.88
2023-01-17T01:09:45.820Z,97672.00
2023-01-17T01:12:28.209Z,97663.03
2023-01-17T01:15:09.294Z,97666.84
2023-01-17T01:17:50.801Z,97665.19
2023-01-17T01:20:31.962Z,97666.72
2023-01-17T01:23:13.071Z,97663.34
2023-01-17T01:25:55.087Z,97667.69
2023-01-17T01:28:37.466Z,97657.56
2023-01-17T01:31:19.156Z,97668.03
2023-01-17T01:33:42.773Z,97657.38
2023-01-17T01:36:10.124Z,97654.22
2023-01-17T01:38:33.720Z,97652.06
2023-01-17T01:40:58.471Z,97641.44
2023-01-17T01:43:45.109Z,97646.44
2023-01-17T01:46:10.789Z,97635.78
2023-01-17T01:48:39.599Z,97643.44
2023-01-17T01:51:07.929Z,97641.09
2023-01-17T01:53:34.458Z,97647.41
2023-01-17T01:55:58.367Z,97637.25
2023-01-17T01:58:26.736Z,97632.09
2023-01-17T02:00:50.773Z,97639.75
2023-01-17T02:03:19.143Z,97635.94
2023-01-17T02:05:43.774Z,97629.78
2023-01-17T02:08:10.366Z,97628.78
2023-01-17T02:10:34.996Z,97622.00
2023-01-17T02:12:59.056Z,97625.28
2023-01-17T02:15:31.973Z,97623.81
2023-01-17T02:18:10.381Z,97622.81
2023-01-17T02:20:59.144Z,97622.50
2023-01-17T02:24:16.379Z,97613.03
2023-01-17T02:27:06.369Z,97622.31
2023-01-17T02:30:14.752Z,97615.50
2023-01-17T02:32:51.748Z,97613.84
2023-01-17T02:35:29.715Z,97620.50
2023-01-17T02:38:01.423Z,97621.66
2023-01-17T02:40:29.527Z,97616.00
2023-01-17T02:42:59.577Z,97618.66
2023-01-17T02:45:23.698Z,97622.81
2023-01-17T02:47:48.689Z,97624.84
2023-01-17T02:50:16.979Z,97628.97
2023-01-17T02:53:13.154Z,97627.47
2023-01-17T02:55:50.425Z,97624.84
2023-01-17T02:58:49.164Z,97626.63
2023-01-17T03:01:27.257Z,97634.78
2023-01-17T03:03:59.969Z,97636.13
2023-01-17T03:06:31.146Z,97625.78
2023-01-17T03:08:55.681Z,97624.78
2023-01-17T03:11:19.933Z,97622.81
2023-01-17T03:13:43.574Z,97627.13
2023-01-17T03:16:12.824Z,97629.31
2023-01-17T03:18:36.651Z,97624.66
2023-01-17T03:21:01.590Z,97624.78
2023-01-17T03:23:25.188Z,97621.81
2023-01-17T03:25:48.702Z,97626.31
2023-01-17T03:28:12.304Z,97617.16
2023-01-17T03:30:35.905Z,97622.81
2023-01-17T03:32:59.523Z,97618.16
2023-01-17T03:35:23.030Z,97619.13
2023-01-17T03:37:47.994Z,97615.13
2023-01-17T03:40:12.809Z,97618.94
2023-01-17T03:42:36.402Z,97623.28
2023-01-17T03:45:00.999Z,97615.47
2023-01-17T03:47:24.679Z,97620.25
2023-01-17T03:49:48.200Z,97622.41
2023-01-17T03:52:11.791Z,97625.03
2023-01-17T03:54:36.745Z,97629.97
2023-01-17T03:57:00.351Z,97632.03
2023-01-17T03:59:23.966Z,97627.19
2023-01-17T04:01:47.657Z,97631.69
2023-01-17T04:04:11.298Z,97633.88
2023-01-17T04:06:34.926Z,97638.72
2023-01-17T04:08:58.406Z,97625.69
2023-01-17T04:11:23.422Z,97636.69
2023-01-17T04:13:46.981Z,97638.50
2023-01-17T04:16:14.758Z,97633.13
2023-01-17T04:18:38.368Z,97631.47
2023-01-17T04:21:01.913Z,97640.59
2023-01-17T04:23:25.422Z,97641.63
2023-01-17T04:25:49.021Z,97643.00
2023-01-17T04:28:14.588Z,97644.88
2023-01-17T04:30:38.504Z,97643.44
2023-01-17T04:33:02.194Z,97637.31
2023-01-17T04:35:25.998Z,97642.91
2023-01-17T04:37:49.514Z,97649.56
2023-01-17T04:40:14.355Z,97646.72
2023-01-17T04:42:38.022Z,97646.31
2023-01-17T04:45:03.034Z,97654.09
2023-01-17T04:47:26.540Z,97649.66
2023-01-17T04:49:50.187Z,97657.66
2023-01-17T04:52:15.080Z,97657.34
2023-01-17T04:54:38.991Z,97657.16
2023-01-17T04:57:02.528Z,97658.50
2023-01-17T04:59:26.078Z,97661.63
2023-01-17T05:01:51.271Z,97658.25
2023-01-17T05:04:14.842Z,97667.34
2023-01-17T05:06:38.375Z,97667.56
2023-01-17T05:09:02.908Z,97670.56
2023-01-17T05:11:26.535Z,97678.22
2023-01-17T05:13:50.361Z,97681.59
2023-01-17T05:16:13.881Z,97673.56
2023-01-17T05:18:38.894Z,97685.50
2023-01-17T05:21:06.135Z,97684.88
2023-01-17T05:23:29.766Z,97687.88
2023-01-17T05:25:53.250Z,97696.91
2023-01-17T05:28:16.826Z,97697.28
2023-01-17T05:30:40.526Z,97704.91
2023-01-17T05:33:04.498Z,97709.91
2023-01-17T05:35:32.582Z,97714.88
2023-01-17T05:37:57.149Z,97716.06
2023-01-17T05:40:22.675Z,97714.88
2023-01-17T05:42:47.629Z,97722.16
2023-01-17T05:45:12.540Z,97724.19
2023-01-17T05:47:36.366Z,97734.16
2023-01-17T05:49:59.936Z,97735.13
2023-01-17T05:52:24.983Z,97731.81
2023-01-17T05:54:50.615Z,97737.50
2023-01-17T05:57:14.292Z,97738.50
2023-01-17T05:59:37.841Z,97751.94
2023-01-17T06:02:01.398Z,97741.69
2023-01-17T06:04:25.022Z,97750.28
2023-01-17T06:06:48.623Z,97753.97
2023-01-17T06:09:13.642Z,97748.00
2023-01-17T06:11:37.323Z,97767.13
2023-01-17T06:14:00.855Z,97776.47
2023-01-17T06:16:24.600Z,97781.78
2023-01-17T06:18:48.112Z,97778.44
2023-01-17T06:21:11.719Z,97777.47
2023-01-17T06:23:35.214Z,97779.13
2023-01-17T06:26:04.633Z,97781.63
2023-01-17T06:28:28.130Z,97788.44
2023-01-17T06:30:51.936Z,97786.44
2023-01-17T06:33:16.209Z,97796.78
2023-01-17T06:35:43.108Z,97783.25
2023-01-17T06:38:06.644Z,97791.09
2023-01-17T06:40:31.186Z,97788.25
2023-01-17T06:42:56.149Z,97789.59
2023-01-17T06:45:20.658Z,97791.41
2023-01-17T06:47:44.683Z,97807.25
2023-01-17T06:50:11.096Z,97814.06
2023-01-17T06:52:34.661Z,97816.22
2023-01-17T06:54:58.263Z,97818.72
2023-01-17T06:57:21.768Z,97820.03
2023-01-17T06:59:46.701Z,97828.19
2023-01-17T07:02:12.227Z,97827.69
2023-01-17T07:04:36.459Z,97821.38
2023-01-17T07:06:59.973Z,97830.38
2023-01-17T07:09:23.517Z,97834.19
2023-01-17T07:11:47.033Z,97841.16
2023-01-17T07:14:14.785Z,97847.66
2023-01-17T07:16:39.705Z,97838.00
2023-01-17T07:19:03.372Z,97842.84
2023-01-17T07:21:27.033Z,97844.31
2023-01-17T07:23:50.571Z,97847.69
2023-01-17T07:26:14.137Z,97857.47
2023-01-17T07:28:37.791Z,97848.63
2023-01-17T07:31:05.955Z,97853.00
2023-01-17T07:33:30.929Z,97855.00
2023-01-17T07:35:54.449Z,97854.16
2023-01-17T07:38:20.961Z,97846.16
2023-01-17T07:40:44.595Z,97856.44
2023-01-17T07:43:13.645Z,97851.81
2023-01-17T07:45:38.291Z,97863.63
2023-01-17T07:48:01.862Z,97866.00
2023-01-17T07:50:26.849Z,97860.66
2023-01-17T07:52:51.283Z,97870.97
2023-01-17T07:55:14.815Z,97875.13
2023-01-17T07:57:38.439Z,97883.44
2023-01-17T08:00:01.973Z,97880.31
2023-01-17T08:02:35.653Z,97878.66
2023-01-17T08:04:59.266Z,97885.63
2023-01-17T08:07:24.172Z,97883.63
2023-01-17T08:09:49.855Z,97886.63
2023-01-17T08:12:13.843Z,97882.97
2023-01-17T08:14:37.481Z,97890.09
2023-01-17T08:17:06.379Z,97881.47
2023-01-17T08:19:29.928Z,97886.09
2023-01-17T08:21:53.424Z,97893.63
2023-01-17T08:24:18.560Z,97896.94
2023-01-17T08:26:42.405Z,97886.97
2023-01-17T08:29:06.075Z,97896.56
2023-01-17T08:31:31.725Z,97898.78
2023-01-17T08:33:55.361Z,97901.28
2023-01-17T08:36:19.177Z,97907.59
2023-01-17T08:38:42.771Z,97917.09
2023-01-17T08:41:07.842Z,97916.94
2023-01-17T08:43:31.445Z,97921.06
2023-01-17T08:45:56.058Z,97919.56
2023-01-17T08:48:19.762Z,97923.56
2023-01-17T08:50:43.619Z,97925.59
2023-01-17T08:53:07.431Z,97930.78
2023-01-17T08:55:30.924Z,97933.91
2023-01-17T08:57:55.896Z,97929.41
2023-01-17T09:00:20.727Z,97935.91
2023-01-17T09:02:44.300Z,97939.22
2023-01-17T09:05:09.475Z,97948.56
2023-01-17T09:07:33.162Z,97948.25
2023-01-17T09:09:56.759Z,97943.06
2023-01-17T09:12:22.194Z,97958.41
2023-01-17T09:14:47.328Z,97958.69
2023-01-17T09:17:11.653Z,97957.72
2023-01-17T09:19:38.877Z,97963.22
2023-01-17T09:22:02.792Z,97975.56
2023-01-17T09:24:26.330Z,97974.16
2023-01-17T09:26:50.120Z,97971.34
2023-01-17T09:29:17.721Z,97984.88
2023-01-17T09:31:42.834Z,98000.69
2023-01-17T09:34:06.435Z,97995.47
2023-01-17T09:36:33.930Z,98014.09
2023-01-17T09:38:58.742Z,98022.56
2023-01-17T09:41:27.709Z,98017.47
2023-01-17T09:43:55.901Z,98020.88
2023-01-17T09:46:26.249Z,98017.69
2023-01-17T09:48:57.646Z,98020.03
2023-01-17T09:51:24.591Z,98025.28
2023-01-17T09:53:48.206Z,98027.50
2023-01-17T09:56:16.344Z,98032.91
2023-01-17T09:58:46.980Z,98034.69
2023-01-17T10:01:19.371Z,98037.31
2023-01-17T10:03:56.727Z,98043.47
2023-01-17T10:06:56.199Z,98044.31
2023-01-17T10:09:42.483Z,98055.78
2023-01-17T10:12:22.950Z,98052.78
2023-01-17T10:15:14.152Z,98060.28
2023-01-17T10:17:50.463Z,98058.16
2023-01-17T10:20:47.138Z,98065.63
2023-01-17T10:23:34.904Z,98073.75
2023-01-17T10:26:05.548Z,98081.72
2023-01-17T10:28:36.375Z,98084.13
2023-01-17T10:31:05.336Z,98091.31
2023-01-17T10:33:33.226Z,98105.59
2023-01-17T10:36:04.280Z,98102.06
2023-01-17T10:38:34.843Z,98101.09
2023-01-17T10:41:05.927Z,98105.47
2023-01-17T10:43:42.011Z,98111.00
2023-01-17T10:46:07.798Z,98109.00
2023-01-17T10:48:41.358Z,98110.22
2023-01-17T10:51:22.251Z,98113.56
2023-01-17T10:54:08.590Z,98120.16
2023-01-17T10:56:34.945Z,98127.81
2023-01-17T10:59:18.381Z,98126.28
2023-01-17T11:01:43.248Z,98128.47
2023-01-17T11:04:21.766Z,98133.84
2023-01-17T11:06:57.817Z,98133.56
2023-01-17T11:09:39.472Z,98138.19
2023-01-17T11:12:04.431Z,98138.75
2023-01-17T11:14:31.070Z,98136.47
2023-01-17T11:17:05.550Z,98141.88
2023-01-17T11:19:33.279Z,98145.19
2023-01-17T11:22:03.276Z,98157.44
2023-01-17T11:24:36.359Z,98157.88
2023-01-17T11:27:00.975Z,98154.44
2023-01-17T11:29:36.813Z,98183.47
2023-01-17T11:32:32.339Z,98185.63
2023-01-17T11:35:21.503Z,98175.38
2023-01-17T11:38:05.589Z,98185.56
2023-01-17T11:40:33.419Z,98183.03
2023-01-17T11:43:22.461Z,98188.13
2023-01-17T11:45:48.833Z,98187.28
2023-01-17T11:48:17.180Z,98187.47
2023-01-17T11:50:43.920Z,98188.88
2023-01-17T11:53:20.229Z,98197.41
2023-01-17T11:55:59.576Z,98204.00
2023-01-17T11:58:24.261Z,98192.06
2023-01-17T12:00:53.385Z,98190.75
2023-01-17T12:03:32.310Z,98193.09
2023-01-17T12:06:04.217Z,98200.09
2023-01-17T12:08:44.104Z,98201.88
2023-01-17T12:11:17.127Z,98205.00
2023-01-17T12:14:00.549Z,98205.84
2023-01-17T12:16:41.142Z,98202.66
2023-01-17T12:19:27.409Z,98206.22
2023-01-17T12:22:07.203Z,98209.09
2023-01-17T12:24:49.129Z,98206.88
2023-01-17T12:27:22.784Z,98204.16
2023-01-17T12:29:59.811Z,98208.09
2023-01-17T12:32:46.550Z,98216.78
2023-01-17T12:35:16.199Z,98218.75
2023-01-17T12:37:42.669Z,98218.22
2023-01-17T12:40:22.633Z,98225.44
2023-01-17T12:42:53.196Z,98226.41
2023-01-17T12:45:25.091Z,98230.13
2023-01-17T12:47:54.898Z,98231.75
2023-01-17T12:50:26.302Z,98242.94
2023-01-17T12:53:00.789Z,98247.25
2023-01-17T12:55:37.751Z,98255.84
2023-01-17T12:58:03.875Z,98252.56
2023-01-17T13:00:30.404Z,98258.50
2023-01-17T13:03:00.247Z,98253.72
2023-01-17T13:05:31.000Z,98251.56
2023-01-17T13:08:02.829Z,98258.34
2023-01-17T13:10:33.024Z,98265.97
2023-01-17T13:13:01.731Z,98256.50
2023-01-17T13:15:30.431Z,98262.22
2023-01-17T13:18:03.376Z,98272.38
2023-01-17T13:20:33.226Z,98268.41
2023-01-17T13:23:04.465Z,98275.19
2023-01-17T13:25:42.480Z,98279.25
2023-01-17T13:28:25.760Z,98279.63
2023-01-17T13:31:36.231Z,98281.22
2023-01-17T13:34:29.354Z,98288.53
2023-01-17T13:37:17.058Z,98289.81
2023-01-17T13:40:04.012Z,98286.56
2023-01-17T13:42:44.268Z,98299.63
2023-01-17T13:45:21.270Z,98300.81
2023-01-17T13:47:45.040Z,98309.53
2023-01-17T13:50:48.071Z,98313.56
2023-01-17T13:54:00.237Z,98327.31
2023-01-17T13:56:36.069Z,98324.13
2023-01-17T13:59:05.196Z,98321.00
2023-01-17T14:01:54.413Z,98335.63
2023-01-17T14:04:18.067Z,98339.41
2023-01-17T14:06:44.698Z,98335.53
2023-01-17T14:09:18.148Z,98337.81
2023-01-17T14:12:04.927Z,98336.09
2023-01-17T14:14:52.090Z,98336.81
2023-01-17T14:17:57.057Z,98347.19
2023-01-17T14:20:52.300Z,98351.66
2023-01-17T14:23:51.177Z,98352.34
2023-01-17T14:26:48.186Z,98368.63
2023-01-17T14:29:55.969Z,98369.00
2023-01-17T14:32:22.589Z,98377.38
2023-01-17T14:34:48.304Z,98395.16
2023-01-17T14:37:38.255Z,98388.19
2023-01-17T14:40:02.260Z,98394.16
2023-01-17T14:42:29.611Z,98392.63
2023-01-17T14:45:01.549Z,98396.75
2023-01-17T14:47:25.554Z,98397.81
2023-01-17T14:49:49.267Z,98406.44
2023-01-17T14:52:18.746Z,98410.59
2023-01-17T14:54:49.840Z,98409.25
2023-01-17T14:57:27.469Z,98416.94
2023-01-17T14:59:51.055Z,98414.94
2023-01-17T15:02:19.204Z,98410.53
2023-01-17T15:04:44.666Z,98418.34
2023-01-17T15:07:13.517Z,98419.19
2023-01-17T15:09:39.209Z,98421.56
2023-01-17T15:12:04.174Z,98425.84
2023-01-17T15:14:33.439Z,98424.03
2023-01-17T15:16:57.109Z,98427.97
2023-01-17T15:19:23.369Z,98426.84
2023-01-17T15:21:50.642Z,98432.56
2023-01-17T15:24:21.100Z,98433.34
2023-01-17T15:26:45.350Z,98432.97
2023-01-17T15:29:15.771Z,98443.16
2023-01-17T15:31:43.696Z,98452.13
2023-01-17T15:34:10.686Z,98452.84
2023-01-17T15:36:36.408Z,98451.31
2023-01-17T15:39:03.529Z,98449.19
2023-01-17T15:41:30.879Z,98452.97
2023-01-17T15:43:57.615Z,98464.00
2023-01-17T15:46:25.755Z,98457.44
2023-01-17T15:48:50.625Z,98452.03
2023-01-17T15:51:16.295Z,98464.44
2023-01-17T15:53:43.239Z,98452.00
2023-01-17T15:56:30.664Z,98456.88
2023-01-17T15:58:54.271Z,98468.22
2023-01-17T16:01:18.465Z,98466.72
2023-01-17T16:03:52.899Z,98470.63
2023-01-17T16:06:38.250Z,98474.41
2023-01-17T16:09:04.661Z,98473.88
2023-01-17T16:11:29.407Z,98468.84
2023-01-17T16:13:53.007Z,98469.84
2023-01-17T16:16:27.177Z,98475.00
2023-01-17T16:18:57.961Z,98476.66
2023-01-17T16:21:25.931Z,98482.25
2023-01-17T16:23:50.296Z,98476.25
2023-01-17T16:26:15.294Z,98489.22
2023-01-17T16:28:39.044Z,98484.47
2023-01-17T16:31:02.641Z,98492.56
2023-01-17T16:33:26.214Z,98484.16
2023-01-17T16:35:51.268Z,98487.09
2023-01-17T16:38:17.678Z,98487.34
2023-01-17T16:40:43.904Z,98487.03
2023-01-17T16:43:09.192Z,98477.81
2023-01-17T16:45:32.950Z,98484.19
2023-01-17T16:47:56.982Z,98488.50
2023-01-17T16:50:24.915Z,98487.78
2023-01-17T16:52:48.464Z,98489.84
2023-01-17T16:55:16.077Z,98489.78
2023-01-17T16:57:39.914Z,98490.41
2023-01-17T17:00:07.311Z,98489.78
2023-01-17T17:02:30.851Z,98491.72
2023-01-17T17:04:54.582Z,98491.44
2023-01-17T17:07:18.271Z,98497.44
2023-01-17T17:09:41.895Z,98501.50
2023-01-17T17:12:06.380Z,98501.97
2023-01-17T17:14:30.189Z,98507.66
2023-01-17T17:16:55.360Z,98504.72
2023-01-17T17:19:19.317Z,98509.97
2023-01-17T17:21:42.928Z,98510.31
2023-01-17T17:24:07.349Z,98505.25
2023-01-17T17:26:34.481Z,98513.75
2023-01-17T17:28:59.167Z,98512.56
2023-01-17T17:31:24.549Z,98517.84
2023-01-17T17:33:50.040Z,98522.91
2023-01-17T17:36:13.600Z,98528.50
2023-01-17T17:38:37.930Z,98531.41
2023-01-17T17:41:07.624Z,98540.44
2023-01-17T17:43:31.222Z,98541.94
2023-01-17T17:45:54.808Z,98541.69
2023-01-17T17:48:18.487Z,98546.16
2023-01-17T17:50:43.581Z,98541.22
2023-01-17T17:53:08.509Z,98551.81
2023-01-17T17:55:32.247Z,98558.19
2023-01-17T17:57:55.983Z,98555.19
2023-01-17T18:00:20.938Z,98551.72
2023-01-17T18:02:44.562Z,98556.41
2023-01-17T18:05:09.061Z,98555.69
2023-01-17T18:07:34.373Z,98562.88
2023-01-17T18:09:57.973Z,98566.38
2023-01-17T18:12:21.588Z,98560.38
2023-01-17T18:14:45.162Z,98562.41
2023-01-17T18:17:08.823Z,98567.09
2023-01-17T18:19:32.432Z,98565.53
2023-01-17T18:21:56.248Z,98563.75
2023-01-17T18:24:23.317Z,98567.59
2023-01-17T18:26:49.933Z,98555.94
2023-01-17T18:29:16.362Z,98569.03
2023-01-17T18:31:40.128Z,98559.91
2023-01-17T18:34:07.364Z,98562.53
2023-01-17T18:36:31.051Z,98563.59
2023-01-17T18:38:54.712Z,98568.31
2023-01-17T18:41:22.574Z,98568.53
2023-01-17T18:43:46.538Z,98565.91
2023-01-17T18:46:12.543Z,98575.16
2023-01-17T18:48:36.387Z,98568.53
2023-01-17T18:51:03.269Z,98567.34
2023-01-17T18:53:27.069Z,98579.31
2023-01-17T18:55:57.040Z,98578.34
2023-01-17T18:58:22.587Z,98586.03
2023-01-17T19:00:46.125Z,98587.81
2023-01-17T19:03:09.764Z,98587.94
2023-01-17T19:05:36.588Z,98594.34
2023-01-17T19:08:00.107Z,98594.06
2023-01-17T19:10:23.671Z,98589.50
2023-01-17T19:12:47.207Z,98595.13
2023-01-17T19:15:12.906Z,98592.50
2023-01-17T19:17:36.476Z,98592.28
2023-01-17T19:20:00.242Z,98591.53
2023-01-17T19:22:23.797Z,98597.00
2023-01-17T19:24:47.421Z,98599.63
2023-01-17T19:27:13.094Z,98599.38
2023-01-17T19:29:36.927Z,98610.41
2023-01-17T19:32:01.847Z,98609.22
2023-01-17T19:34:25.420Z,98602.97
2023-01-17T19:36:49.203Z,98608.50
2023-01-17T19:39:13.277Z,98608.69
2023-01-17T19:41:39.077Z,98610.25
2023-01-17T19:44:04.796Z,98610.97
2023-01-17T19:46:28.891Z,98611.84
2023-01-17T19:48:54.980Z,98614.91
2023-01-17T19:51:18.548Z,98611.25
2023-01-17T19:53:42.905Z,98609.84
2023-01-17T19:56:08.902Z,98619.38
2023-01-17T19:58:32.532Z,98617.03
2023-01-17T20:00:56.247Z,98623.53
2023-01-17T20:03:20.078Z,98620.25
2023-01-17T20:05:46.175Z,98618.44
2023-01-17T20:08:10.800Z,98617.19
2023-01-17T20:10:34.399Z,98623.63
2023-01-17T20:12:57.933Z,98629.91
2023-01-17T20:15:23.954Z,98631.47
2023-01-17T20:17:47.487Z,98631.59
2023-01-17T20:20:13.565Z,98630.41
2023-01-17T20:22:38.552Z,98635.69
2023-01-17T20:25:02.155Z,98631.59
2023-01-17T20:27:26.686Z,98626.31
2023-01-17T20:29:51.423Z,98625.13
2023-01-17T20:32:14.942Z,98628.53
2023-01-17T20:34:38.493Z,98630.78
2023-01-17T20:37:02.281Z,98626.97
2023-01-17T20:39:27.457Z,98626.22
2023-01-17T20:41:52.028Z,98625.09
2023-01-17T20:44:16.984Z,98631.94
2023-01-17T20:46:41.922Z,98637.00
2023-01-17T20:49:07.674Z,98639.84
2023-01-17T20:51:34.399Z,98642.06
2023-01-17T20:54:02.584Z,98650.13
2023-01-17T20:56:30.254Z,98653.94
2023-01-17T20:58:54.452Z,98655.81
2023-01-17T21:01:21.162Z,98662.38
2023-01-17T21:03:44.812Z,98660.78
2023-01-17T21:06:10.430Z,98667.25
2023-01-17T21:08:36.226Z,98670.59
2023-01-17T21:11:00.009Z,98676.09
2023-01-17T21:13:25.409Z,98689.06
2023-01-17T21:15:50.575Z,98693.00
2023-01-17T21:18:14.353Z,98698.16
2023-01-17T21:20:37.994Z,98709.00
2023-01-17T21:23:01.601Z,98707.19
2023-01-17T21:25:25.152Z,98714.41
2023-01-17T21:27:48.739Z,98725.66
2023-01-17T21:30:15.465Z,98730.53
2023-01-17T21:32:39.052Z,98729.59
2023-01-17T21:35:02.589Z,98744.88
2023-01-17T21:37:26.177Z,98739.16
2023-01-17T21:39:54.710Z,98746.88
2023-01-17T21:42:18.376Z,98744.34
2023-01-17T21:44:41.994Z,98739.69
2023-01-17T21:47:07.045Z,98746.84
2023-01-17T21:49:30.645Z,98747.81
2023-01-17T21:52:11.908Z,98752.13
2023-01-17T21:54:52.880Z,98759.41
2023-01-17T21:57:37.881Z,98760.91
2023-01-17T22:00:01.503Z,98756.97
2023-01-17T22:02:26.584Z,98763.88
2023-01-17T22:04:50.256Z,98766.63
2023-01-17T22:07:13.870Z,98761.09
2023-01-17T22:09:37.503Z,98771.84
2023-01-17T22:12:00.991Z,98761.31
2023-01-17T22:14:24.544Z,98762.16
2023-01-17T22:16:48.631Z,98767.00
2023-01-17T22:19:13.722Z,98767.63
2023-01-17T22:21:37.356Z,98766.59
2023-01-17T22:24:01.445Z,98771.63
2023-01-17T22:26:29.180Z,98784.25
2023-01-17T22:28:54.170Z,98773.72
2023-01-17T22:31:20.898Z,98773.53
2023-01-17T22:33:46.608Z,98771.38
2023-01-17T22:36:13.765Z,98779.19
2023-01-17T22:38:37.660Z,98772.84
2023-01-17T22:41:07.967Z,98787.50
2023-01-17T22:43:31.636Z,98780.44
2023-01-17T22:46:00.643Z,98772.09
2023-01-17T22:48:24.299Z,98774.31
2023-01-17T22:50:47.991Z,98779.09
2023-01-17T22:53:12.972Z,98766.81
2023-01-17T22:55:36.509Z,98756.50
2023-01-17T22:58:00.126Z,98751.31
2023-01-17T23:00:23.856Z,98759.66
2023-01-17T23:02:47.478Z,98762.41
2023-01-17T23:05:11.524Z,98766.28
2023-01-17T23:07:43.046Z,98761.47
2023-01-17T23:10:09.237Z,98761.25
2023-01-17T23:12:32.745Z,98767.47
2023-01-17T23:15:13.957Z,98759.84
2023-01-17T23:17:54.859Z,98762.38
2023-01-17T23:20:18.757Z,98758.38
2023-01-17T23:22:42.259Z,98753.31
2023-01-17T23:25:10.987Z,98750.88
2023-01-17T23:27:54.619Z,98745.84
2023-01-17T23:30:20.502Z,98738.53
2023-01-17T23:32:47.101Z,98749.78
2023-01-17T23:35:11.071Z,98740.75
2023-01-17T23:37:51.912Z,98734.09
2023-01-17T23:40:18.369Z,98738.84
2023-01-17T23:42:59.337Z,98734.94
2023-01-17T23:45:23.083Z,98736.50
2023-01-17T23:47:46.772Z,98725.78
2023-01-17T23:50:12.059Z,98725.56
2023-01-17T23:52:35.589Z,98719.19
2023-01-17T23:54:59.364Z,98723.88
2023-01-17T23:57:24.608Z,98719.88
2023-01-17T23:59:48.259Z,98713.66
